createdAt,value
2023-02-19T00:00:20.892Z,88.18
2023-02-19T00:05:43.635Z,87.84
2023-02-19T00:10:46.360Z,87.55
2023-02-19T00:15:49.164Z,86.87
2023-02-19T00:20:52.019Z,86.60
2023-02-19T00:25:55.430Z,86.31
2023-02-19T00:31:10.310Z,85.82
2023-02-19T00:36:13.949Z,85.66
2023-02-19T00:41:21.482Z,84.75
2023-02-19T00:46:30.390Z,84.04
2023-02-19T00:51:36.346Z,84.76
2023-02-19T00:56:39.125Z,84.75
2023-02-19T01:01:44.468Z,85.09
2023-02-19T01:06:48.892Z,84.76
2023-02-19T01:11:51.694Z,84.99
2023-02-19T01:16:54.430Z,84.34
2023-02-19T01:21:57.213Z,82.96
2023-02-19T01:26:59.932Z,82.86
2023-02-19T01:32:03.013Z,82.63
2023-02-19T01:37:08.141Z,82.39
2023-02-19T01:42:15.402Z,82.50
2023-02-19T01:47:18.293Z,81.49
2023-02-19T01:52:31.800Z,82.34
2023-02-19T01:57:37.715Z,82.23
2023-02-19T02:02:42.688Z,82.40
2023-02-19T02:08:04.234Z,82.57
2023-02-19T02:13:07.099Z,82.19
2023-02-19T02:18:40.191Z,82.25
2023-02-19T02:24:11.194Z,82.33
2023-02-19T02:29:23.897Z,81.79
2023-02-19T02:34:48.277Z,82.06
2023-02-19T02:39:50.995Z,82.32
2023-02-19T02:45:13.980Z,82.52
2023-02-19T02:50:26.056Z,83.04
2023-02-19T02:55:30.711Z,83.52
2023-02-19T03:00:52.868Z,83.90
2023-02-19T03:06:00.201Z,84.53
2023-02-19T03:11:25.139Z,84.71
2023-02-19T03:16:47.978Z,84.99
2023-02-19T03:22:03.270Z,85.03
2023-02-19T03:27:06.074Z,85.07
2023-02-19T03:32:14.689Z,85.26
2023-02-19T03:37:24.512Z,84.98
2023-02-19T03:42:42.660Z,85.00
2023-02-19T03:48:02.926Z,84.56
2023-02-19T03:53:31.567Z,84.07
2023-02-19T03:58:45.061Z,83.90
2023-02-19T04:04:14.243Z,83.82
2023-02-19T04:09:17.104Z,83.72
2023-02-19T04:14:25.237Z,83.68
2023-02-19T04:19:29.408Z,83.60
2023-02-19T04:24:44.901Z,83.47
2023-02-19T04:29:48.045Z,83.62
2023-02-19T04:34:54.240Z,83.61
2023-02-19T04:39:57.307Z,83.46
2023-02-19T04:45:00.141Z,83.27
2023-02-19T04:50:03.284Z,83.21
2023-02-19T04:55:07.236Z,83.36
2023-02-19T05:00:12.779Z,83.41
2023-02-19T05:05:15.698Z,83.40
2023-02-19T05:10:18.587Z,83.74
2023-02-19T05:15:21.412Z,83.78
2023-02-19T05:20:24.215Z,83.94
2023-02-19T05:25:27.111Z,84.03
2023-02-19T05:30:29.930Z,84.06
2023-02-19T05:35:32.781Z,84.46
2023-02-19T05:40:36.616Z,84.12
2023-02-19T05:45:40.198Z,84.23
2023-02-19T05:50:42.978Z,84.22
2023-02-19T05:55:45.804Z,84.52
2023-02-19T06:00:48.739Z,84.62
2023-02-19T06:05:52.794Z,84.71
2023-02-19T06:10:55.530Z,84.71
2023-02-19T06:15:58.362Z,85.12
2023-02-19T06:21:05.651Z,84.61
2023-02-19T06:26:19.644Z,84.64
2023-02-19T06:31:22.839Z,84.77
2023-02-19T06:36:25.674Z,84.26
2023-02-19T06:41:28.398Z,84.25
2023-02-19T06:46:31.213Z,84.27
2023-02-19T06:51:34.602Z,84.03
2023-02-19T06:56:39.707Z,83.80
2023-02-19T07:01:42.771Z,83.66
2023-02-19T07:06:45.587Z,83.79
2023-02-19T07:11:48.501Z,83.45
2023-02-19T07:16:51.295Z,83.57
2023-02-19T07:21:54.047Z,83.48
2023-02-19T07:26:56.950Z,83.08
2023-02-19T07:31:59.799Z,83.00
2023-02-19T07:37:02.571Z,82.78
2023-02-19T07:42:05.513Z,83.28
2023-02-19T07:47:08.351Z,82.40
2023-02-19T07:52:11.178Z,82.24
2023-02-19T07:57:14.639Z,81.99
2023-02-19T08:02:37.679Z,81.55
2023-02-19T08:07:40.608Z,81.46
2023-02-19T08:13:02.399Z,81.55
2023-02-19T08:18:11.459Z,81.35
2023-02-19T08:23:14.411Z,81.02
2023-02-19T08:28:17.289Z,80.90
2023-02-19T08:33:21.367Z,80.30
2023-02-19T08:38:24.163Z,80.21
2023-02-19T08:43:27.056Z,79.80
2023-02-19T08:48:29.987Z,79.85
2023-02-19T08:53:32.928Z,79.02
2023-02-19T08:58:36.306Z,78.47
2023-02-19T09:03:39.602Z,78.50
2023-02-19T09:08:42.507Z,77.72
2023-02-19T09:13:45.449Z,78.10
2023-02-19T09:37:46.260Z,78.39
2023-02-19T09:44:31.226Z,78.23
2023-02-19T09:51:19.327Z,77.76
2023-02-19T10:11:57.299Z,74.96
2023-02-19T10:17:06.830Z,72.31
2023-02-19T10:29:54.231Z,72.05
2023-02-19T10:53:55.395Z,66.13
2023-02-19T11:00:19.111Z,64.93
2023-02-19T11:05:35.223Z,64.86
2023-02-19T11:12:16.400Z,63.88
2023-02-19T11:17:27.819Z,64.54
2023-02-19T11:22:46.982Z,63.81
2023-02-19T11:28:06.937Z,63.29
2023-02-19T11:33:16.200Z,62.71
2023-02-19T11:44:46.573Z,62.56
2023-02-19T11:57:16.254Z,61.98
2023-02-19T12:02:27.484Z,61.35
2023-02-19T12:08:37.586Z,61.21
2023-02-19T12:21:21.176Z,60.41
2023-02-19T12:26:42.890Z,59.64
2023-02-19T12:38:45.308Z,59.01
2023-02-19T12:51:22.184Z,60.60
2023-02-19T13:03:34.866Z,61.32
2023-02-19T13:09:06.494Z,60.51
2023-02-19T13:21:21.492Z,59.68
2023-02-19T13:26:46.296Z,59.18
2023-02-19T13:32:21.090Z,60.06
2023-02-19T13:44:08.252Z,58.41
2023-02-19T14:16:01.679Z,57.13
2023-02-19T14:28:48.258Z,57.23
2023-02-19T14:41:48.462Z,57.70
2023-02-19T14:53:22.467Z,56.65
2023-02-19T14:58:47.710Z,56.95
2023-02-19T15:04:27.625Z,55.36
2023-02-19T15:09:40.013Z,56.91
2023-02-19T15:29:04.495Z,58.38
2023-02-19T15:59:46.530Z,63.03
2023-02-19T16:12:44.903Z,63.51
2023-02-19T16:18:21.722Z,62.39
2023-02-19T16:29:32.608Z,61.07
2023-02-19T16:36:21.653Z,60.71
2023-02-19T16:50:20.758Z,60.69
2023-02-19T17:12:19.632Z,60.81
2023-02-19T17:19:08.675Z,60.55
2023-02-19T17:24:19.375Z,59.99
2023-02-19T17:29:22.744Z,59.10
2023-02-19T17:34:25.610Z,57.91
2023-02-19T17:39:28.398Z,57.69
2023-02-19T17:46:23.710Z,57.89
2023-02-19T17:51:43.770Z,56.82
2023-02-19T17:56:55.061Z,56.63
2023-02-19T18:01:57.835Z,56.41
2023-02-19T18:07:01.009Z,56.30
2023-02-19T18:12:04.922Z,55.90
2023-02-19T18:17:07.756Z,55.21
2023-02-19T18:22:56.785Z,55.44
2023-02-19T18:28:39.739Z,55.35
2023-02-19T18:46:27.808Z,57.35
2023-02-19T18:51:46.956Z,57.59
2023-02-19T18:56:53.153Z,58.36
2023-02-19T19:08:01.808Z,57.85
2023-02-19T19:13:04.853Z,58.22
2023-02-19T19:18:12.070Z,58.25
2023-02-19T19:24:20.236Z,57.99
2023-02-19T20:06:21.860Z,60.20
2023-02-19T20:11:24.691Z,59.83
2023-02-19T20:17:33.210Z,59.98
2023-02-19T20:52:53.595Z,59.81
2023-02-19T20:59:02.145Z,60.11
2023-02-19T21:10:16.064Z,60.71
2023-02-19T21:15:20.177Z,60.85
2023-02-19T21:20:29.040Z,60.61
2023-02-19T21:25:33.292Z,60.99
2023-02-19T21:30:36.404Z,60.79
2023-02-19T21:35:40.291Z,61.11
2023-02-19T22:11:27.603Z,63.17
2023-02-19T22:16:31.350Z,63.44
2023-02-19T22:29:16.391Z,63.96
2023-02-19T22:34:59.680Z,64.48
2023-02-19T22:52:52.073Z,65.83
2023-02-19T23:17:14.059Z,67.18
2023-02-19T23:37:47.079Z,68.09
2023-02-19T23:42:54.579Z,68.28
